Time;durP1;ratioP1;P1;durP2;ratioP2;P2;SDS_P1;SDS_P2;PMS_P1;PMS_P2;Temp;Humidity;BMP_temperature;BMP_pressure;BME280_temperature;BME280_humidity;BME280_pressure;Samples;Min_cycle;Max_cycle;Signal;HPM_P1;HPM_P2
2022/04/06 00:00:19;;;;;;;19.83;16.85;;;8.60;99.90;;;8.54;87.14;99532.25;4804798;29;20213;-66
2022/04/06 00:02:48;;;;;;;23.02;18.70;;;8.50;99.90;;;8.52;87.10;99528.97;4805007;29;20186;-66
2022/04/06 00:05:18;;;;;;;21.00;18.23;;;8.50;99.90;;;8.46;87.63;99527.97;4805036;29;20589;-66
2022/04/06 00:07:48;;;;;;;19.05;16.42;;;8.50;99.90;;;8.47;87.72;99531.50;4805021;29;20309;-66
2022/04/06 00:10:21;;;;;;;22.08;17.45;;;8.50;99.90;;;8.54;87.48;99521.47;4804855;29;20194;-66
2022/04/06 00:12:50;;;;;;;18.55;16.40;;;8.50;99.90;;;8.59;87.61;99529.69;4803576;29;20211;-66
2022/04/06 00:15:20;;;;;;;20.88;17.58;;;8.60;99.90;;;8.70;87.19;99531.69;4804993;29;20208;-66
2022/04/06 00:17:48;;;;;;;20.38;16.88;;;8.70;99.90;;;8.71;87.02;99533.34;4804300;29;20684;-64
2022/04/06 00:20:18;;;;;;;18.52;16.45;;;8.70;99.90;;;8.66;87.24;99530.47;4804541;29;20667;-66
2022/04/06 00:22:47;;;;;;;22.35;16.73;;;8.70;99.90;;;8.78;87.13;99534.06;4803305;29;20221;-68
2022/04/06 00:25:16;;;;;;;14.48;12.98;;;8.70;99.90;;;8.84;86.84;99533.19;4804599;29;20269;-65
2022/04/06 00:27:46;;;;;;;14.43;12.77;;;8.80;99.90;;;8.91;86.57;99533.94;4804934;29;20283;-66
2022/04/06 00:30:15;;;;;;;15.15;13.65;;;8.90;99.90;;;8.97;86.45;99527.63;4804768;29;20285;-65
2022/04/06 00:32:44;;;;;;;15.15;13.52;;;8.90;99.90;;;8.94;86.55;99521.88;4805203;29;20197;-65
2022/04/06 00:35:32;;;;;;;12.98;11.38;;;9.00;99.90;;;8.99;86.80;99522.84;4808458;29;20659;-65
2022/04/06 00:38:04;;;;;;;15.13;12.35;;;9.00;99.90;;;8.99;86.73;99522.84;4808195;29;20221;-66
2022/04/06 00:40:35;;;;;;;12.52;11.23;;;9.00;99.90;;;8.94;87.18;99517.31;4808312;29;20616;-66
2022/04/06 00:43:12;;;;;;;12.95;11.65;;;9.00;99.90;;;9.04;86.85;99522.19;4807991;29;20644;-65
2022/04/06 00:45:44;;;;;;;14.85;13.20;;;9.00;99.90;;;9.08;86.73;99513.41;4807767;29;20193;-66
2022/04/06 00:48:14;;;;;;;16.13;13.90;;;9.10;99.90;;;9.09;86.85;99520.47;4806161;29;20225;-66
2022/04/06 00:50:43;;;;;;;15.55;13.45;;;9.00;99.90;;;9.11;86.96;99518.34;4807193;29;20197;-66
2022/04/06 00:53:14;;;;;;;16.83;14.75;;;9.10;99.90;;;9.14;86.71;99517.91;4807961;29;20212;-66
2022/04/06 00:55:43;;;;;;;15.45;12.93;;;9.10;99.90;;;9.13;86.89;99524.34;4807889;29;20186;-67
2022/04/06 00:58:14;;;;;;;18.85;14.95;;;9.10;99.90;;;9.16;86.73;99515.78;4807509;29;20304;-67
2022/04/06 01:00:43;;;;;;;19.23;17.33;;;9.20;99.90;;;9.08;86.72;99508.00;4806392;29;20571;-66
2022/04/06 01:03:12;;;;;;;18.77;15.52;;;9.10;99.90;;;9.04;87.08;99514.91;4807733;29;20188;-65
2022/04/06 01:05:41;;;;;;;17.58;14.90;;;9.10;99.90;;;9.06;86.99;99515.50;4807263;29;20285;-66
2022/04/06 01:08:11;;;;;;;16.50;14.77;;;9.00;99.90;;;9.09;87.10;99516.94;4807084;29;20213;-67
2022/04/06 01:10:40;;;;;;;20.20;16.85;;;9.10;99.90;;;9.07;87.17;99510.91;4807094;29;20624;-65
2022/04/06 01:13:11;;;;;;;18.77;14.77;;;9.10;99.90;;;9.10;87.21;99516.69;4807306;29;20202;-66
2022/04/06 01:15:41;;;;;;;16.95;15.07;;;9.10;99.90;;;9.15;86.90;99511.44;4807512;29;20270;-66
2022/04/06 01:18:10;;;;;;;17.63;14.65;;;9.10;99.90;;;9.13;86.38;99510.84;4807089;29;20243;-67
2022/04/06 01:20:39;;;;;;;20.38;15.63;;;9.10;99.90;;;9.12;86.39;99513.75;4806929;29;20182;-66
2022/04/06 01:23:10;;;;;;;18.67;16.65;;;9.10;99.90;;;9.16;86.36;99504.16;4807355;29;20228;-66
2022/04/06 01:25:41;;;;;;;18.83;15.68;;;9.10;99.90;;;9.22;86.44;99507.84;4807011;29;20213;-65
2022/04/06 01:28:10;;;;;;;18.63;16.10;;;9.20;99.90;;;9.13;86.35;99500.06;4807017;29;20250;-66
2022/04/06 01:30:38;;;;;;;18.60;16.70;;;9.10;99.90;;;9.19;86.45;99508.31;4806984;29;20205;-66
2022/04/06 01:33:08;;;;;;;16.15;14.45;;;9.20;99.90;;;9.12;86.37;99498.41;4806896;29;20574;-65
2022/04/06 01:35:38;;;;;;;18.95;16.48;;;9.20;99.90;;;9.21;86.54;99503.47;4805523;29;20743;-65
2022/04/06 01:38:09;;;;;;;19.83;16.88;;;9.20;99.90;;;9.16;86.40;99505.00;4815448;29;20300;-65
2022/04/06 01:40:38;;;;;;;19.95;17.77;;;9.10;99.90;;;9.18;86.18;99507.47;4818332;29;20651;-66
2022/04/06 01:43:07;;;;;;;19.15;16.25;;;9.20;99.90;;;9.12;86.65;99502.97;4818314;29;20197;-66
2022/04/06 01:45:36;;;;;;;19.40;16.60;;;9.10;99.90;;;9.09;86.70;99498.88;4806715;29;20594;-66
2022/04/06 01:48:06;;;;;;;20.23;16.88;;;9.10;99.90;;;9.13;86.92;99505.47;4806851;29;20209;-66
2022/04/06 01:53:22;;;;;;;20.38;17.38;;;9.10;99.90;;;9.12;86.97;99503.81;4808787;29;20284;-65
2022/04/06 01:55:52;;;;;;;18.02;16.05;;;9.10;99.90;;;9.13;86.60;99505.47;4808901;29;20204;-66
2022/04/06 01:58:21;;;;;;;19.98;17.92;;;9.10;99.90;;;9.13;86.67;99510.84;4807217;29;20241;-66
2022/04/06 02:00:51;;;;;;;19.80;17.15;;;9.10;99.90;;;9.15;86.76;99505.22;4807939;29;20181;-66
2022/04/06 02:03:20;;;;;;;19.55;16.63;;;9.20;99.90;;;9.13;86.66;99505.47;4835540;29;20209;-65
2022/04/06 02:05:50;;;;;;;21.00;17.45;;;9.20;99.90;;;9.09;86.99;99509.66;4807036;29;20566;-65
2022/04/06 02:08:19;;;;;;;21.02;18.98;;;9.10;99.90;;;9.20;86.74;99513.44;4806250;29;20561;-66
2022/04/06 02:10:49;;;;;;;21.67;16.45;;;9.10;99.90;;;9.09;86.81;99511.53;4807712;29;20190;-66
2022/04/06 02:13:19;;;;;;;19.23;16.50;;;9.10;99.90;;;9.16;86.74;99502.28;4808145;29;20274;-66
2022/04/06 02:15:49;;;;;;;21.30;19.00;;;9.20;99.90;;;9.15;86.64;99497.94;4807747;29;20595;-66
2022/04/06 02:18:18;;;;;;;21.35;18.25;;;9.10;99.90;;;9.22;86.36;99487.06;4808684;29;20221;-66
2022/04/06 02:20:47;;;;;;;21.88;17.88;;;9.20;99.90;;;9.15;86.33;99495.25;4840447;29;20665;-65
2022/04/06 02:23:16;;;;;;;19.98;17.02;;;9.20;99.90;;;9.13;86.46;99493.84;4806402;29;20197;-66
2022/04/06 02:25:45;;;;;;;23.40;18.75;;;9.20;99.90;;;9.09;86.57;99493.47;4806239;29;20272;-66
2022/04/06 02:28:15;;;;;;;23.25;17.15;;;9.10;99.90;;;9.12;86.75;99492.19;4805964;29;20768;-65
2022/04/06 02:30:44;;;;;;;20.45;16.42;;;9.10;99.90;;;9.07;86.69;99497.44;4805627;29;20166;-66
2022/04/06 02:33:13;;;;;;;20.27;17.48;;;9.10;99.90;;;9.15;86.57;99503.34;4806066;29;20289;-66
2022/04/06 02:35:42;;;;;;;19.40;17.30;;;9.10;99.90;;;9.20;86.19;99494.56;4805790;29;20193;-65
2022/04/06 02:38:11;;;;;;;22.00;17.90;;;9.20;99.90;;;9.13;86.16;99483.03;4805828;29;20731;-66
2022/04/06 02:40:40;;;;;;;18.13;16.23;;;9.10;99.90;;;9.18;86.21;99490.44;4805894;29;20732;-66
2022/04/06 02:43:09;;;;;;;21.50;18.73;;;9.20;99.90;;;9.18;86.17;99485.06;4805642;29;20692;-66
2022/04/06 02:45:39;;;;;;;20.73;18.73;;;9.20;99.90;;;9.18;85.84;99490.44;4805477;29;20185;-65
2022/04/06 02:48:09;;;;;;;18.67;16.73;;;9.20;99.90;;;9.15;85.75;99489.84;4805401;29;20226;-67
2022/04/06 02:50:38;;;;;;;18.67;15.85;;;9.20;99.90;;;9.08;85.81;99481.03;4805519;29;20277;-66
2022/04/06 02:53:07;;;;;;;18.17;16.33;;;9.10;99.90;;;9.13;85.66;99480.34;4805373;29;20632;-65
2022/04/06 02:55:36;;;;;;;21.17;17.92;;;9.10;99.90;;;9.14;85.53;99476.59;4805412;29;20198;-66
2022/04/06 02:58:05;;;;;;;19.23;17.15;;;9.10;99.90;;;9.10;85.69;99478.91;4805473;29;20233;-66
2022/04/06 03:00:34;;;;;;;18.98;17.02;;;9.10;99.90;;;9.09;85.55;99477.28;4805661;29;20849;-66
2022/04/06 03:03:05;;;;;;;20.35;17.85;;;9.10;99.90;;;9.12;85.52;99481.38;4806018;29;20185;-66
2022/04/06 03:05:34;;;;;;;18.70;16.80;;;9.10;99.90;;;9.10;85.33;99481.59;4805651;29;20189;-65
2022/04/06 03:08:03;;;;;;;23.95;19.58;;;9.10;99.90;;;9.06;85.48;99483.13;4805723;29;20221;-65
2022/04/06 03:10:32;;;;;;;20.58;16.58;;;9.10;99.90;;;9.12;85.25;99478.69;4805220;29;20294;-66
2022/04/06 03:13:01;;;;;;;19.48;17.52;;;9.10;99.90;;;9.10;85.26;99488.91;4805481;29;20200;-65
2022/04/06 03:15:30;;;;;;;21.42;19.25;;;9.10;99.90;;;9.10;84.98;99481.59;4805230;29;20208;-66
2022/04/06 03:17:59;;;;;;;21.77;18.35;;;9.10;99.90;;;9.09;85.07;99492.66;4805216;29;20245;-66
2022/04/06 03:20:29;;;;;;;19.70;17.60;;;9.10;99.90;;;9.12;84.69;99490.31;4805186;29;20300;-65
2022/04/06 03:22:58;;;;;;;19.17;16.38;;;9.10;99.90;;;9.10;84.60;99489.69;4805107;29;20676;-66
2022/04/06 03:25:27;;;;;;;20.88;17.13;;;9.10;99.90;;;9.09;84.63;99484.53;4805247;29;20644;-66
2022/04/06 03:27:56;;;;;;;17.65;15.70;;;9.00;99.90;;;9.10;84.00;99489.69;4805232;29;20591;-66
2022/04/06 03:30:25;;;;;;;19.63;17.52;;;9.10;99.90;;;9.13;83.65;99483.88;4805404;29;20289;-66
2022/04/06 03:32:54;;;;;;;17.48;15.70;;;9.10;99.90;;;9.13;83.61;99486.56;4805124;29;20185;-65
2022/04/06 03:35:23;;;;;;;22.20;17.92;;;9.10;99.90;;;9.16;83.49;99488.81;4805182;29;20186;-65
2022/04/06 03:37:54;;;;;;;17.63;15.45;;;9.10;99.90;;;9.22;83.30;99484.38;4805280;29;20225;-66
2022/04/06 03:40:23;;;;;;;17.75;14.73;;;9.20;99.90;;;9.21;83.33;99493.50;4805323;29;20212;-65
2022/04/06 03:42:52;;;;;;;18.00;15.63;;;9.20;99.90;;;9.13;83.94;99489.25;4804812;29;20422;-66
2022/04/06 03:45:21;;;;;;;22.38;16.70;;;9.20;99.90;;;9.11;83.85;99490.53;4805940;29;20202;-64
2022/04/06 03:47:51;;;;;;;19.75;16.15;;;9.10;99.90;;;9.14;84.02;99487.41;4806493;29;20763;-65
2022/04/06 03:50:20;;;;;;;18.80;15.68;;;9.10;99.90;;;9.16;83.61;99488.81;4808032;29;20253;-65
2022/04/06 03:52:48;;;;;;;17.30;15.50;;;9.20;99.90;;;9.13;83.65;99491.13;4808451;29;20201;-66
2022/04/06 03:55:19;;;;;;;15.48;13.10;;;9.20;99.90;;;9.10;83.73;99489.69;4808712;29;20197;-65
2022/04/06 03:57:48;;;;;;;19.67;16.30;;;9.10;99.90;;;9.10;83.90;99484.31;4806732;29;20731;-66
2022/04/06 04:00:18;;;;;;;16.30;13.07;;;9.10;99.90;;;9.01;83.90;99487.53;4805434;29;20263;-66
2022/04/06 04:02:48;;;;;;;15.27;13.52;;;9.10;99.90;;;9.10;83.84;99494.31;4806049;29;20181;-67
2022/04/06 04:05:17;;;;;;;15.75;13.40;;;9.10;99.90;;;9.14;83.63;99490.91;4805515;29;20192;-65
2022/04/06 04:07:46;;;;;;;18.30;12.90;;;9.10;99.90;;;9.04;83.84;99489.81;4809299;29;20221;-66
2022/04/06 04:10:19;;;;;;;15.70;13.40;;;9.10;99.90;;;8.97;84.10;99495.25;4817831;29;20193;-66
2022/04/06 04:12:50;;;;;;;15.38;12.48;;;9.00;99.90;;;9.05;83.96;99497.66;4812909;29;20202;-65
2022/04/06 04:15:19;;;;;;;15.65;13.27;;;9.00;99.90;;;9.05;83.90;99502.25;4809173;29;20198;-65
2022/04/06 04:17:48;;;;;;;18.90;13.07;;;9.00;99.90;;;9.09;83.74;99504.25;4811527;29;20217;-66
2022/04/06 04:20:17;;;;;;;23.85;14.30;;;9.10;99.90;;;9.04;83.78;99506.00;4808223;29;20262;-66
2022/04/06 04:22:47;;;;;;;14.55;12.80;;;9.00;99.90;;;9.02;83.59;99498.09;4806819;29;20205;-66
2022/04/06 04:25:16;;;;;;;15.95;12.85;;;9.00;99.90;;;9.07;83.42;99503.66;4808279;29;20205;-66
2022/04/06 04:27:45;;;;;;;17.00;13.48;;;9.10;99.90;;;9.03;83.68;99507.03;4808013;29;20256;-65
2022/04/06 04:30:16;;;;;;;14.93;13.38;;;9.00;99.90;;;8.99;83.91;99512.06;4808604;29;20200;-66
2022/04/06 04:32:45;;;;;;;19.35;14.30;;;9.00;99.90;;;8.99;83.65;99514.75;4808662;29;20648;-66
2022/04/06 04:35:13;;;;;;;17.35;15.05;;;9.00;99.90;;;8.96;83.73;99508.97;4808253;29;20323;-66
2022/04/06 04:37:43;;;;;;;14.43;12.35;;;9.00;99.90;;;8.97;83.50;99516.84;4837199;29;20245;-66
2022/04/06 04:40:12;;;;;;;16.70;13.90;;;9.00;99.90;;;8.99;83.61;99514.75;4808523;29;20235;-66
2022/04/06 04:42:41;;;;;;;14.98;13.23;;;9.00;99.90;;;8.99;83.64;99514.75;4813516;29;20190;-65
2022/04/06 04:45:11;;;;;;;16.70;13.88;;;9.00;99.90;;;8.98;83.91;99523.06;4815748;29;20178;-67
2022/04/06 04:47:41;;;;;;;17.98;12.80;;;9.00;99.90;;;8.97;83.78;99527.63;4814873;29;20651;-65
2022/04/06 04:50:10;;;;;;;17.17;14.15;;;9.00;99.90;;;9.04;83.92;99527.56;4812795;29;20248;-66
2022/04/06 04:52:40;;;;;;;21.83;14.68;;;9.00;99.90;;;9.00;84.00;99534.47;4809049;29;20197;-66
2022/04/06 04:55:10;;;;;;;16.27;13.93;;;9.00;99.90;;;9.00;83.53;99538.00;4808237;29;20715;-66
2022/04/06 04:57:39;;;;;;;17.38;14.60;;;9.00;99.90;;;8.90;84.30;99529.59;4809212;29;20240;-66
2022/04/06 05:00:10;;;;;;;16.58;14.82;;;8.90;99.90;;;8.94;84.08;99522.69;4808445;29;20293;-67
2022/04/06 05:02:40;;;;;;;20.33;16.40;;;8.90;99.90;;;8.94;84.46;99517.31;4807027;29;20274;-66
2022/04/06 05:05:11;;;;;;;23.70;17.42;;;8.90;99.90;;;8.94;84.04;99517.31;4808425;29;20648;-66
2022/04/06 05:07:40;;;;;;;25.63;16.05;;;8.90;99.90;;;8.97;83.89;99522.25;4806817;29;20221;-67
2022/04/06 05:10:11;;;;;;;20.63;16.48;;;8.90;99.90;;;9.03;83.72;99520.53;4806918;29;20206;-66
2022/04/06 05:12:40;;;;;;;17.73;14.55;;;9.00;99.90;;;9.01;83.67;99534.22;4809799;29;20189;-67
2022/04/06 05:15:12;;;;;;;21.83;16.10;;;9.00;99.90;;;9.04;83.61;99523.00;4807676;29;20557;-68
2022/04/06 05:17:43;;;;;;;17.30;14.43;;;9.00;99.90;;;9.01;83.28;99534.22;4806749;29;20209;-67
2022/04/06 05:20:13;;;;;;;20.23;15.68;;;9.00;99.90;;;8.97;83.38;99537.59;4806647;29;20202;-66
2022/04/06 05:22:42;;;;;;;17.45;15.75;;;9.00;99.90;;;9.02;82.93;99530.50;4806996;29;20254;-66
2022/04/06 05:25:11;;;;;;;16.80;15.05;;;9.00;99.90;;;8.97;82.79;99535.72;4806665;29;20233;-66
2022/04/06 05:27:49;;;;;;;20.13;15.60;;;9.00;99.90;;;9.08;82.66;99535.00;4806917;29;20300;-65
2022/04/06 05:30:21;;;;;;;18.50;14.10;;;9.00;99.90;;;9.16;82.47;99531.97;4806787;29;20204;-66
2022/04/06 05:32:55;;;;;;;17.63;14.75;;;9.10;99.90;;;9.13;82.31;99535.13;4806570;29;20182;-66
2022/04/06 05:35:27;;;;;;;19.25;15.80;;;9.10;99.90;;;9.11;82.25;99534.53;4824235;29;20204;-66
2022/04/06 05:37:58;;;;;;;15.65;13.63;;;9.10;99.90;;;9.21;81.96;99538.56;4812422;29;20213;-67
2022/04/06 05:40:28;;;;;;;22.80;15.80;;;9.20;99.90;;;9.30;81.25;99537.22;4806026;29;20204;-66
2022/04/06 05:42:58;;;;;;;17.88;15.05;;;9.20;99.90;;;9.47;81.43;99549.06;4806225;29;20655;-65
2022/04/06 05:45:27;;;;;;;16.98;13.73;;;9.30;99.90;;;9.62;80.54;99538.66;4806607;29;20217;-65
2022/04/06 05:47:59;;;;;;;20.33;16.17;;;9.50;99.90;;;9.56;79.68;99553.09;4806674;29;20205;-65
2022/04/06 05:50:27;;;;;;;16.20;14.50;;;9.50;99.90;;;9.58;80.17;99553.69;4805966;29;20174;-66
2022/04/06 05:52:56;;;;;;;20.48;15.73;;;9.50;99.90;;;9.54;80.42;99547.06;4805852;29;20634;-67
2022/04/06 05:55:26;;;;;;;17.98;15.60;;;9.50;99.90;;;9.58;80.25;99538.28;4806103;29;20205;-65
2022/04/06 05:57:55;;;;;;;14.88;13.48;;;9.50;99.90;;;9.56;79.80;99543.09;4806039;29;20655;-65
2022/04/06 06:00:24;;;;;;;22.13;16.60;;;9.50;99.90;;;9.53;80.06;99548.16;4805975;29;20209;-65
2022/04/06 06:02:53;;;;;;;17.52;13.77;;;9.50;99.90;;;9.63;79.85;99555.72;4806403;29;20200;-66
2022/04/06 06:05:24;;;;;;;16.20;14.32;;;9.60;99.90;;;9.47;80.09;99549.88;4806245;29;20689;-67
2022/04/06 06:07:53;;;;;;;19.27;15.07;;;9.50;99.90;;;9.59;80.28;99558.00;4806179;29;20642;-66
2022/04/06 06:10:22;;;;;;;20.13;16.23;;;9.50;99.90;;;9.60;79.67;99562.38;4806065;29;20563;-67
2022/04/06 06:12:51;;;;;;;19.42;14.55;;;9.60;99.90;;;9.61;79.86;99561.31;4813636;29;20198;-66
2022/04/06 06:15:20;;;;;;;21.27;15.82;;;9.60;99.90;;;9.72;79.69;99552.47;4816662;29;20249;-66
2022/04/06 06:17:49;;;;;;;19.33;14.20;;;9.60;99.90;;;9.82;79.43;99557.31;4816107;29;20226;-66
2022/04/06 06:20:17;;;;;;;26.33;18.55;;;9.70;99.90;;;9.77;79.07;99554.47;4807632;29;20229;-67
2022/04/06 06:22:48;;;;;;;19.15;15.20;;;9.70;99.90;;;9.73;79.54;99548.69;4805719;29;20243;-65
2022/04/06 06:25:17;;;;;;;23.40;18.13;;;9.70;99.90;;;9.68;79.92;99548.56;4806225;29;20239;-66
2022/04/06 06:27:46;;;;;;;26.52;16.70;;;9.70;99.90;;;9.59;80.41;99553.44;4805331;29;20213;-66
2022/04/06 06:30:19;;;;;;;21.80;17.23;;;9.60;99.90;;;9.67;80.64;99548.78;4812359;24;20229;-70
2022/04/06 06:32:48;;;;;;;25.27;18.90;;;9.60;99.90;;;9.77;80.74;99546.38;4799380;30;20210;-71
2022/04/06 06:35:19;;;;;;;24.08;17.88;;;9.70;99.90;;;9.90;80.52;99549.69;4807951;29;20209;-70
2022/04/06 06:37:53;;;;;;;23.55;19.98;;;9.80;99.90;;;9.97;80.24;99550.41;4806921;30;20202;-71
2022/04/06 06:40:26;;;;;;;26.55;20.73;;;9.80;99.90;;;10.01;79.79;99550.78;4807633;29;20302;-71
2022/04/06 06:42:55;;;;;;;24.63;18.95;;;9.90;99.90;;;10.24;79.42;99552.75;4807837;29;20270;-71
2022/04/06 06:45:24;;;;;;;26.10;19.33;;;10.00;99.90;;;10.38;78.82;99546.91;4808050;29;20198;-70
2022/04/06 06:47:53;;;;;;;28.88;19.90;;;10.20;99.90;;;10.56;78.10;99550.53;4805262;30;20202;-69
2022/04/06 06:50:22;;;;;;;23.88;20.02;;;10.40;99.90;;;10.48;78.00;99551.72;4797915;29;20238;-71
2022/04/06 06:52:53;;;;;;;28.05;20.85;;;10.40;99.90;;;10.43;77.75;99552.44;4801690;29;20302;-71
2022/04/06 06:55:22;;;;;;;26.95;18.30;;;10.40;99.90;;;10.32;78.18;99553.22;4788433;30;20186;-71
2022/04/06 06:57:51;;;;;;;25.92;19.70;;;10.30;99.90;;;10.28;77.79;99541.22;4788342;30;20677;-72
2022/04/06 07:00:20;;;;;;;23.50;20.75;;;10.30;99.90;;;10.24;78.06;99545.47;4788984;29;20288;-71
2022/04/06 07:02:49;;;;;;;25.43;19.10;;;10.30;99.90;;;10.37;77.76;99549.81;4787990;29;20305;-70
2022/04/06 07:05:19;;;;;;;28.70;21.98;;;10.30;99.90;;;10.52;77.14;99542.06;4792903;30;20511;-71
2022/04/06 07:07:55;;;;;;;29.92;20.35;;;10.40;99.90;;;10.59;76.94;99542.81;4788771;30;20190;-70
2022/04/06 07:10:25;;;;;;;32.83;19.10;;;10.50;99.90;;;10.55;76.75;99540.81;4788266;29;20618;-70
2022/04/06 07:12:55;;;;;;;29.50;23.20;;;10.50;44.80;;;10.60;76.70;99541.72;4787885;30;20243;-70
2022/04/06 07:15:25;;;;;;;30.40;21.27;;;10.50;82.10;;;10.60;76.48;99539.00;4787231;30;20765;-71
2022/04/06 07:17:56;;;;;;;31.60;20.73;;;10.50;17.90;;;10.66;75.67;99538.09;4787093;30;20440;-71
2022/04/06 07:20:28;;;;;;;22.70;19.40;;;10.60;1.00;;;10.70;75.79;99538.41;4787142;29;20429;-70
2022/04/06 07:22:58;;;;;;;32.63;22.20;;;10.60;1.00;;;10.58;75.27;99534.91;4786973;30;20963;-70
2022/04/06 07:25:27;;;;;;;24.60;19.77;;;10.50;1.00;;;10.49;75.64;99531.75;4786906;30;20436;-71
2022/04/06 07:27:57;;;;;;;28.43;20.47;;;10.50;1.00;;;10.59;75.54;99537.38;4787187;30;20432;-71
2022/04/06 07:30:26;;;;;;;28.67;20.80;;;10.50;1.00;;;10.80;74.34;99531.38;4786604;29;20478;-70
2022/04/06 07:32:55;;;;;;;29.93;20.93;;;10.60;1.00;;;10.98;73.80;99516.06;4786951;29;20444;-70
2022/04/06 07:35:25;;;;;;;23.23;18.97;;;10.70;99.90;;;11.06;72.79;99515.69;4788838;30;20443;-72
2022/04/06 07:37:54;;;;;;;26.67;20.13;;;10.90;99.90;;;11.04;72.70;99517.78;4787931;29;20872;-70
2022/04/06 07:40:25;;;;;;;27.47;21.60;;;10.90;99.90;;;11.30;71.80;99514.56;4786797;29;20463;-71
2022/04/06 07:42:55;;;;;;;24.40;19.90;;;11.10;99.90;;;11.53;71.45;99522.59;4789327;29;20466;-72
2022/04/06 07:45:28;;;;;;;21.47;18.60;;;11.20;99.90;;;11.54;70.44;99523.44;4789330;30;20422;-70
2022/04/06 07:47:57;;;;;;;26.63;20.37;;;11.40;99.40;;;11.53;70.72;99516.38;4790482;29;20425;-71
2022/04/06 07:50:26;;;;;;;24.50;17.83;;;11.40;85.10;;;11.50;69.93;99517.69;4788936;29;20552;-70
2022/04/06 07:52:55;;;;;;;29.23;19.07;;;11.40;44.50;;;11.91;69.83;99518.47;4790153;30;20411;-70
2022/04/06 07:55:26;;;;;;;23.67;19.10;;;11.60;65.50;;;12.42;68.59;99523.69;4790888;30;20463;-69
2022/04/06 07:57:55;;;;;;;22.60;16.97;;;12.00;42.90;;;12.43;67.92;99514.47;4790393;30;20460;-71
2022/04/06 08:00:24;;;;;;;28.03;18.00;;;12.10;12.70;;;12.60;66.79;99511.75;4790466;29;20444;-71
2022/04/06 08:02:53;;;;;;;19.80;15.70;;;12.30;1.00;;;12.76;66.49;99516.34;4790085;30;20475;-71
2022/04/06 08:05:22;;;;;;;17.37;15.50;;;12.40;1.00;;;12.96;65.61;99513.91;4790287;30;20509;-71
2022/04/06 08:07:53;;;;;;;25.27;17.20;;;12.60;1.00;;;13.04;64.26;99515.34;4790942;29;20563;-69
2022/04/06 08:10:25;;;;;;;24.13;16.83;;;12.80;1.00;;;13.12;64.66;99509.50;4790363;29;20441;-70
2022/04/06 08:12:54;;;;;;;21.13;16.80;;;12.80;1.00;;;13.01;64.45;99518.59;4790804;30;20403;-72
2022/04/06 08:15:24;;;;;;;24.17;16.67;;;12.90;1.00;;;13.00;64.70;99520.47;4806247;29;20452;-71
2022/04/06 08:17:53;;;;;;;19.57;14.13;;;12.80;1.00;;;12.73;64.81;99513.31;4790034;29;20394;-72
2022/04/06 08:20:23;;;;;;;22.23;14.87;;;12.60;1.00;;;12.60;64.25;99517.16;4789320;29;20542;-71
2022/04/06 08:22:52;;;;;;;17.30;14.03;;;12.60;1.00;;;12.69;64.33;99515.66;4789500;30;20450;-71
2022/04/06 08:25:21;;;;;;;25.30;14.57;;;12.50;1.00;;;13.03;63.62;99521.84;4789347;30;20445;-70
2022/04/06 08:28:07;;;;;;;18.07;14.30;;;12.70;1.00;;;12.83;63.03;99516.97;4789636;30;20403;-71
2022/04/06 08:30:39;;;;;;;18.13;13.30;;;12.70;1.00;;;12.79;62.87;99521.25;4789787;29;20562;-69
2022/04/06 08:33:11;;;;;;;19.07;12.50;;;12.60;1.00;;;12.93;63.05;99521.72;4789378;30;20497;-69
2022/04/06 08:35:44;;;;;;;21.23;13.90;;;12.70;1.00;;;12.78;63.29;99530.47;4789444;29;20422;-71
2022/04/06 08:38:15;;;;;;;20.70;12.83;;;12.60;1.00;;;12.71;62.79;99535.25;4790093;30;20402;-70
2022/04/06 08:40:45;;;;;;;15.10;13.27;;;12.60;1.00;;;12.46;63.44;99532.97;4790141;29;20440;-69
2022/04/06 08:43:17;;;;;;;14.97;13.30;;;12.50;1.00;;;12.17;63.24;99536.81;4789347;29;20817;-70
2022/04/06 08:45:46;;;;;;;19.73;13.17;;;12.30;1.00;;;12.06;64.20;99529.56;4787998;30;20450;-70
2022/04/06 08:48:16;;;;;;;13.27;11.83;;;12.10;1.00;;;12.04;64.34;99529.84;4789618;29;20431;-71
2022/04/06 08:50:47;;;;;;;18.80;13.40;;;12.00;1.00;;;12.03;64.08;99527.34;4789221;29;20527;-71
2022/04/06 08:53:20;;;;;;;12.60;11.20;;;12.00;1.00;;;11.82;64.59;99530.75;4788877;29;20497;-70
2022/04/06 08:55:50;;;;;;;13.10;11.70;;;11.80;1.00;;;11.77;64.15;99524.19;4789447;30;20443;-70
2022/04/06 08:58:20;;;;;;;15.90;11.30;;;11.80;1.00;;;11.87;63.98;99528.16;4789379;29;20452;-70
2022/04/06 09:00:49;;;;;;;15.23;11.57;;;11.70;1.00;;;11.95;63.68;99525.88;4789583;29;20436;-71
2022/04/06 09:03:21;;;;;;;17.13;10.33;;;11.80;1.00;;;11.96;63.20;99518.53;4789994;30;20467;-70
2022/04/06 09:06:01;;;;;;;17.67;10.10;;;11.90;1.00;;;12.24;62.52;99523.94;4789595;29;20421;-69
2022/04/06 09:08:37;;;;;;;13.13;10.47;;;12.10;1.00;;;12.52;62.07;99525.75;4789784;29;20406;-70
2022/04/06 09:11:11;;;;;;;13.00;11.23;;;12.20;1.00;;;13.01;61.10;99521.28;4789824;29;20419;-69
2022/04/06 09:13:43;;;;;;;13.93;10.37;;;12.50;1.00;;;13.14;60.33;99517.41;4789570;29;20426;-69
2022/04/06 09:16:16;;;;;;;14.53;11.83;;;12.80;1.00;;;13.14;59.78;99518.22;4789677;29;20398;-70
2022/04/06 09:18:48;;;;;;;17.90;12.17;;;12.90;1.00;;;13.23;59.97;99511.28;4789365;29;20433;-71
2022/04/06 09:21:19;;;;;;;15.03;11.10;;;13.00;1.00;;;12.91;59.95;99518.44;4789942;29;20444;-71
2022/04/06 09:23:49;;;;;;;14.77;10.70;;;12.90;1.00;;;12.94;59.99;99518.75;4789402;30;20548;-69
2022/04/06 09:26:21;;;;;;;10.57;9.23;;;12.80;1.00;;;12.94;60.18;99518.75;4789506;30;20410;-71
2022/04/06 09:28:52;;;;;;;10.43;9.27;;;12.80;1.00;;;13.26;60.03;99520.84;4789321;29;20487;-71
2022/04/06 09:31:22;;;;;;;18.00;11.07;;;13.00;1.00;;;13.10;59.54;99505.38;4788922;29;20418;-71
2022/04/06 09:33:58;;;;;;;14.97;9.90;;;12.90;1.00;;;13.35;58.98;99513.88;4789214;29;20466;-70
2022/04/06 09:36:29;;;;;;;18.43;10.60;;;13.10;1.00;;;13.55;58.82;99507.88;4788995;29;20858;-70
2022/04/06 09:38:59;;;;;;;14.27;10.40;;;13.20;1.00;;;13.48;58.98;99514.31;4788425;29;20440;-71
2022/04/06 09:41:30;;;;;;;16.83;10.03;;;13.30;1.00;;;13.65;58.26;99499.81;4788943;29;20414;-71
2022/04/06 09:47:38;;;;;;;12.70;10.63;;;13.40;1.00;;;13.68;58.40;99499.31;4788450;30;20502;-71
2022/04/06 09:50:16;;;;;;;12.90;10.27;;;13.50;1.00;;;13.01;58.62;99502.28;4788421;29;20435;-70
2022/04/06 09:52:52;;;;;;;12.37;9.70;;;13.10;1.00;;;12.61;59.71;99495.22;4788956;29;20418;-70
2022/04/06 09:55:23;;;;;;;20.53;9.60;;;12.70;1.00;;;12.46;59.59;99489.56;4788624;30;20531;-71
2022/04/06 09:57:55;;;;;;;13.10;9.37;;;12.50;1.00;;;12.62;59.86;99483.28;4788651;30;20774;-70
2022/04/06 10:00:28;;;;;;;16.17;10.73;;;12.50;1.00;;;12.55;59.27;99485.34;4788276;29;20473;-71
2022/04/06 10:03:05;;;;;;;17.83;10.50;;;12.50;1.00;;;12.77;59.25;99495.44;4788373;30;20471;-68
2022/04/06 10:05:37;;;;;;;12.33;10.03;;;12.60;1.00;;;12.93;58.28;99489.94;4787533;29;20424;-70
2022/04/06 10:08:09;;;;;;;11.80;9.80;;;12.70;1.00;;;13.23;57.79;99492.25;4788588;30;20410;-69
2022/04/06 10:10:42;;;;;;;12.63;10.60;;;13.00;1.00;;;13.56;57.21;99476.88;4788297;29;20437;-71
2022/04/06 10:13:11;;;;;;;12.67;10.07;;;13.20;1.00;;;13.76;56.57;99487.97;4788085;29;20422;-70
2022/04/06 10:16:02;;;;;;;13.00;9.60;;;13.40;1.00;;;13.48;56.58;99481.69;4787857;30;20414;-70
2022/04/06 10:18:36;;;;;;;12.80;10.37;;;13.40;1.00;;;13.67;56.54;99476.72;4788557;29;20506;-71
2022/04/06 10:21:17;;;;;;;17.40;11.47;;;13.50;1.00;;;13.79;56.21;99473.88;4788411;30;20769;-73
2022/04/06 10:23:57;;;;;;;12.30;10.30;;;13.60;1.00;;;13.64;55.88;99479.16;4787848;29;20434;-71
2022/04/06 10:26:46;;;;;;;13.27;10.80;;;13.60;1.00;;;13.32;57.16;99477.16;4788094;29;20453;-72
2022/04/06 10:29:18;;;;;;;15.93;11.20;;;13.30;1.00;;;13.21;58.11;99477.31;4787857;29;20481;-71
2022/04/06 10:31:48;;;;;;;16.60;10.93;;;13.20;1.00;;;13.45;57.13;99481.41;4787630;29;20501;-70
2022/04/06 10:34:24;;;;;;;16.90;10.93;;;13.30;1.00;;;13.58;57.13;99472.00;4787344;30;20407;-71